AC4CA-WX Weather Reports


Display with metric or nautical units.
time (UTC)temp
F
wind
direction
speed
MPH
gust
MPH
rain 1hr
in
rain 24hr
in
rain mn
in
humidity
%
barometer
mb
20220706044614 84 118 2.0 5.0 0.00 0.00 0.00 62 1016.2
20220706043613 84 212 3.0 10.0 0.00 0.00 0.00 61 1016.1
20220706042607 85 160 4.0 8.0 0.00 0.00 0.00 60 1015.9
20220706041607 85 162 3.0 9.0 0.00 0.00 0.00 59 1015.9
20220706040607 85 146 4.0 11.0 0.00 0.00 0.00 58 1015.9
20220706035607 85 137 3.0 8.0 0.00 0.00 0.00 56 1015.9
20220706034607 85 153 3.0 9.0 0.00 0.00 0.00 54 1015.8
20220706033607 85 121 2.0 5.0 0.00 0.00 0.00 53 1015.6
20220706032608 85 82 1.0 3.0 0.00 0.00 0.00 52 1015.3
20220706031607 86 132 1.0 4.0 0.00 0.00 0.00 51 1015.0
20220706030608 86 105 2.0 4.0 0.00 0.00 0.00 50 1014.9
20220706025603 87 139 2.0 4.0 0.00 0.00 0.00 49 1015.1
20220706024602 87 122 1.0 3.0 0.00 0.00 0.00 49 1015.0
20220706023602 87 141 2.0 4.0 0.00 0.00 0.00 48 1014.8
20220706022602 88 110 2.0 5.0 0.00 0.00 0.00 47 1014.8
20220706021602 88 119 2.0 5.0 0.00 0.00 0.00 47 1014.6
20220706020601 89 131 2.0 7.0 0.00 0.00 0.00 46 1014.5
20220706015602 89 136 2.0 7.0 0.00 0.00 0.00 46 1014.3
20220706014603 90 117 3.0 8.0 0.00 0.00 0.00 45 1014.4
20220706013601 91 98 3.0 10.0 0.00 0.00 0.00 44 1014.2
20220706012607 91 103 4.0 10.0 0.00 0.00 0.00 43 1014.0
20220706011555 92 158 3.0 7.0 0.00 0.00 0.00 43 1013.9
20220706010556 93 126 4.0 11.0 0.00 0.00 0.00 42 1013.8
20220706005556 94 162 4.0 10.0 0.00 0.00 0.00 41 1013.6
20220706004555 94 181 3.0 7.0 0.00 0.00 0.00 40 1013.5
20220706003556 95 127 4.0 11.0 0.00 0.00 0.00 40 1013.5
20220706002555 95 162 5.0 12.0 0.00 0.00 0.00 39 1013.4
20220706001555 96 215 5.0 11.0 0.00 0.00 0.00 38 1013.4
20220706000555 96 162 4.0 9.0 0.00 0.00 0.00 38 1013.5
20220705235554 96 131 4.0 10.0 0.00 0.00 0.00 37 1013.5
20220705234552 96 174 4.0 10.0 0.00 0.00 0.00 37 1013.5
20220705233559 97 129 5.0 11.0 0.00 0.00 0.00 36 1013.6
20220705232553 97 203 5.0 12.0 0.00 0.00 0.00 36 1013.4
20220705231554 98 139 4.0 9.0 0.00 0.00 0.00 36 1013.5
20220705230554 98 208 5.0 12.0 0.00 0.00 0.00 35 1013.6
20220705225553 98 86 4.0 9.0 0.00 0.00 0.00 35 1013.7
20220705224552 98 91 5.0 14.0 0.00 0.00 0.00 36 1013.6
20220705223552 98 222 5.0 11.0 0.00 0.00 0.00 36 1013.6
20220705222552 98 176 4.0 8.0 0.00 0.00 0.00 36 1013.7
20220705221551 98 131 6.0 13.0 0.00 0.00 0.00 37 1013.9
20220705220551 98 167 5.0 12.0 0.00 0.00 0.00 36 1014.2
20220705215551 98 171 5.0 11.0 0.00 0.00 0.00 37 1014.3
20220705214551 98 197 6.0 14.0 0.00 0.00 0.00 37 1014.4
20220705213551 98 203 4.0 10.0 0.00 0.00 0.00 38 1014.5
20220705212551 97 308 5.0 13.0 0.00 0.00 0.00 38 1014.7
20220705211551 98 131 6.0 13.0 0.00 0.00 0.00 38 1015.0
20220705210549 98 222 5.0 13.0 0.00 0.00 0.00 38 1015.0
20220705205549 98 193 4.0 12.0 0.00 0.00 0.00 35 1015.1
20220705204549 98 191 5.0 12.0 0.00 0.00 0.00 37 1015.3
20220705203549 98 179 5.0 16.0 0.00 0.00 0.00 35 1015.5
20220705202549 96 203 6.0 12.0 0.00 0.00 0.00 39 1015.7
20220705201548 97 231 7.0 18.0 0.00 0.00 0.00 38 1015.8
20220705200549 97 214 4.0 10.0 0.00 0.00 0.00 37 1015.9
20220705195549 96 205 6.0 12.0 0.00 0.00 0.00 38 1016.1
20220705194549 97 251 5.0 15.0 0.00 0.00 0.00 39 1016.1
20220705193549 97 219 4.0 11.0 0.00 0.00 0.00 40 1016.1
20220705192549 96 264 4.0 14.0 0.00 0.00 0.00 40 1016.4
20220705191548 95 164 6.0 15.0 0.00 0.00 0.00 43 1016.4
20220705190548 94 242 5.0 13.0 0.00 0.00 0.00 43 1016.6
20220705185549 94 199 6.0 13.0 0.00 0.00 0.00 44 1016.8
20220705184549 95 225 5.0 14.0 0.00 0.00 0.00 42 1016.9
20220705183549 94 208 4.0 13.0 0.00 0.00 0.00 44 1017.2
20220705182549 94 141 6.0 12.0 0.00 0.00 0.00 45 1017.3
20220705181549 93 200 4.0 9.0 0.00 0.00 0.00 46 1017.3
20220705180544 92 255 5.0 12.0 0.00 0.00 0.00 48 1017.4
20220705175545 91 240 5.0 11.0 0.00 0.00 0.00 50 1017.6
20220705174544 92 231 4.0 10.0 0.00 0.00 0.00 50 1017.6
20220705173544 91 298 5.0 13.0 0.00 0.00 0.00 51 1017.7
20220705172544 90 82 5.0 13.0 0.00 0.00 0.00 53 1017.9
20220705171544 88 226 4.0 10.0 0.00 0.00 0.00 56 1018.2
20220705170544 88 201 4.0 11.0 0.00 0.00 0.00 57 1018.2
20220705165544 87 231 5.0 14.0 0.00 0.00 0.00 60 1018.2
20220705164544 86 154 5.0 11.0 0.00 0.00 0.00 59 1018.2
20220705163543 87 203 5.0 11.0 0.00 0.00 0.00 60 1018.2
20220705162538 85 252 5.0 12.0 0.00 0.00 0.00 61 1018.2
20220705161539 84 205 6.0 11.0 0.00 0.00 0.00 63 1018.4
20220705160538 84 207 5.0 12.0 0.00 0.00 0.00 64 1018.4
20220705155538 85 240 6.0 17.0 0.00 0.00 0.00 63 1018.4
20220705154539 84 194 6.0 13.0 0.00 0.00 0.00 63 1018.4
20220705153538 84 234 6.0 15.0 0.00 0.00 0.00 65 1018.3
20220705152539 83 271 6.0 13.0 0.00 0.00 0.00 66 1018.4
20220705151537 84 207 5.0 12.0 0.00 0.00 0.00 65 1018.4
20220705150535 83 222 7.0 18.0 0.00 0.00 0.00 67 1018.5
20220705145534 82 169 6.0 13.0 0.00 0.00 0.00 69 1018.6
20220705144534 81 196 7.0 15.0 0.00 0.00 0.00 72 1018.5
20220705143534 80 190 8.0 17.0 0.00 0.00 0.00 74 1018.5
20220705142535 80 158 6.0 17.0 0.00 0.00 0.00 73 1018.5
20220705141535 80 235 7.0 14.0 0.00 0.00 0.00 74 1018.5
20220705140534 78 207 7.0 15.0 0.00 0.00 0.00 76 1018.6
20220705135534 77 195 6.0 13.0 0.00 0.00 0.00 79 1018.5
20220705134528 77 224 5.0 13.0 0.00 0.00 0.00 78 1018.5
20220705133528 77 164 7.0 13.0 0.00 0.00 0.00 79 1018.5
20220705132528 77 209 4.0 10.0 0.00 0.00 0.00 81 1018.4
20220705131528 76 165 5.0 15.0 0.00 0.00 0.00 83 1018.4
20220705130528 75 131 3.0 8.0 0.00 0.00 0.00 85 1018.4
20220705125528 75 200 3.0 7.0 0.00 0.00 0.00 86 1018.4
20220705124528 74 195 3.0 9.0 0.00 0.00 0.00 87 1018.5
20220705123528 74 193 3.0 8.0 0.00 0.00 0.00 88 1018.5
20220705122532 74 229 2.0 7.0 0.00 0.00 0.00 88 1018.3
20220705121522 73 215 2.0 6.0 0.00 0.00 0.00 88 1018.2
20220705120521 73 224 3.0 6.0 0.00 0.00 0.00 88 1018.1
20220705115522 73 159 3.0 8.0 0.00 0.00 0.00 87 1018.2
20220705114522 74 219 4.0 8.0 0.00 0.00 0.00 87 1017.9
20220705113522 74 188 4.0 10.0 0.00 0.00 0.00 87 1018.1
20220705112522 74 159 4.0 7.0 0.00 0.00 0.00 87 1018.1
20220705111522 74 171 3.0 8.0 0.00 0.00 0.00 87 1018.1
20220705110522 74 228 3.0 8.0 0.00 0.00 0.00 86 1018.2
20220705105521 74 216 3.0 7.0 0.00 0.00 0.00 86 1018.1
20220705104516 74 207 2.0 9.0 0.00 0.00 0.00 85 1017.9
20220705103516 74 212 3.0 8.0 0.00 0.00 0.00 84 1017.9
20220705102516 74 200 3.0 8.0 0.00 0.00 0.00 84 1017.8
20220705101516 74 217 4.0 9.0 0.00 0.00 0.00 83 1017.9
20220705100515 75 205 5.0 10.0 0.00 0.00 0.00 82 1017.9
20220705095516 75 217 5.0 11.0 0.00 0.00 0.00 81 1017.9
20220705094516 75 222 4.0 11.0 0.00 0.00 0.00 81 1017.8
20220705093516 75 229 5.0 11.0 0.00 0.00 0.00 81 1017.7
20220705092515 75 201 3.0 10.0 0.00 0.00 0.00 83 1017.7
20220705091514 75 216 3.0 6.0 0.00 0.00 0.00 84 1017.6
20220705090514 76 219 3.0 8.0 0.00 0.00 0.00 83 1017.7
20220705085513 76 191 3.0 7.0 0.00 0.00 0.00 83 1017.7
20220705084514 76 231 3.0 7.0 0.00 0.00 0.00 82 1017.7
20220705083514 76 228 4.0 10.0 0.00 0.00 0.00 82 1017.7
20220705082514 77 244 4.0 11.0 0.00 0.00 0.00 83 1017.7
20220705081513 77 202 4.0 8.0 0.00 0.00 0.00 83 1017.8
20220705080514 77 202 3.0 8.0 0.00 0.00 0.00 83 1018.1
20220705075513 77 203 4.0 9.0 0.00 0.00 0.00 83 1018.1
20220705074514 77 234 4.0 8.0 0.00 0.00 0.00 82 1018.1
20220705073514 78 176 4.0 8.0 0.00 0.00 0.00 81 1018.2
20220705072513 78 198 4.0 8.0 0.00 0.00 0.00 80 1018.3
20220705071514 78 177 3.0 8.0 0.00 0.00 0.00 79 1018.5
20220705070514 78 134 4.0 8.0 0.00 0.00 0.00 78 1018.4
20220705065513 79 207 3.0 8.0 0.00 0.00 0.00 78 1018.5
20220705064514 79 141 3.0 8.0 0.00 0.00 0.00 77 1018.4
20220705063513 79 179 4.0 10.0 0.00 0.00 0.00 76 1018.4
20220705062514 80 215 4.0 10.0 0.00 0.00 0.00 75 1018.4
20220705061512 80 173 5.0 11.0 0.00 0.00 0.00 75 1018.5
20220705060511 80 242 4.0 11.0 0.00 0.00 0.00 74 1018.5
20220705055511 80 184 3.0 8.0 0.00 0.00 0.00 74 1018.5
20220705054511 81 145 4.0 10.0 0.00 0.00 0.00 73 1018.5
20220705053512 81 230 5.0 11.0 0.00 0.00 0.00 72 1018.5
20220705052512 82 217 5.0 14.0 0.00 0.00 0.00 71 1018.5
20220705051511 82 160 5.0 14.0 0.00 0.00 0.00 70 1018.5
20220705050512 82 208 6.0 12.0 0.00 0.00 0.00 69 1018.5
20220705045511 82 136 5.0 14.0 0.00 0.00 0.00 67 1018.4